Time;durP1;ratioP1;P1;durP2;ratioP2;P2;SDS_P1;SDS_P2;PMS_P1;PMS_P2;Temp;Humidity;BMP_temperature;BMP_pressure;BME280_temperature;BME280_humidity;BME280_pressure;Samples;Min_cycle;Max_cycle;Signal;HPM_P1;HPM_P2
2022/09/22 15:38:19;;;;;;;11.48;3.38;;;18.70;99.30;;;;;;7422115;19;20329;-84
2022/09/22 15:40:47;;;;;;;5.22;2.55;;;18.60;99.90;;;;;;7421887;19;20018;-84
2022/09/22 15:43:19;;;;;;;8.93;2.88;;;18.40;99.90;;;;;;7423937;19;20038;-84
2022/09/22 15:45:47;;;;;;;5.30;2.50;;;18.20;99.90;;;;;;7277449;19;20000;-83
2022/09/22 15:48:35;;;;;;;7.05;2.22;;;18.10;99.90;;;;;;7429200;19;20018;-83
2022/09/22 15:51:05;;;;;;;3.97;1.75;;;17.90;99.90;;;;;;7425363;19;20010;-83
2022/09/22 15:53:33;;;;;;;5.35;1.95;;;17.90;99.90;;;;;;7430070;19;20089;-83
2022/09/22 15:56:04;;;;;;;4.75;2.00;;;17.70;99.90;;;;;;7429174;19;20019;-84
2022/09/22 15:58:39;;;;;;;5.38;2.30;;;17.70;99.90;;;;;;7429717;19;20035;-87
2022/09/22 16:01:16;;;;;;;5.13;2.30;;;17.60;99.90;;;;;;7428551;19;20018;-85
2022/09/22 16:03:43;;;;;;;4.45;2.45;;;17.60;99.90;;;;;;7427891;19;20025;-85
2022/09/22 16:06:11;;;;;;;6.30;2.67;;;17.60;99.90;;;;;;7427854;19;20029;-84
2022/09/22 16:08:44;;;;;;;9.73;4.80;;;17.50;99.90;;;;;;7427879;19;20193;-85
2022/09/22 16:11:16;;;;;;;6.32;3.05;;;17.60;99.90;;;;;;7429610;19;20093;-84
2022/09/22 16:13:42;;;;;;;7.85;3.50;;;17.50;99.90;;;;;;7422985;19;20366;-84
2022/09/22 16:16:09;;;;;;;3.53;2.50;;;17.50;99.90;;;;;;7430641;19;20018;-84
2022/09/22 16:18:40;;;;;;;4.22;2.30;;;17.40;99.90;;;;;;7425767;19;20074;-85
2022/09/22 16:21:21;;;;;;;4.55;2.08;;;17.30;99.90;;;;;;7429395;19;20036;-85
2022/09/22 16:23:48;;;;;;;5.05;2.90;;;17.30;99.90;;;;;;7424640;19;20010;-83
2022/09/22 16:26:14;;;;;;;4.45;2.40;;;17.30;99.90;;;;;;7429731;19;20026;-84
2022/09/22 16:28:40;;;;;;;5.50;2.38;;;17.20;99.90;;;;;;7426415;19;20022;-85
2022/09/22 16:31:09;;;;;;;5.43;2.97;;;17.10;99.90;;;;;;7430128;19;20007;-85
2022/09/22 16:33:35;;;;;;;4.03;1.88;;;17.10;99.90;;;;;;7422882;19;20029;-85
2022/09/22 16:36:05;;;;;;;4.88;2.00;;;17.00;99.90;;;;;;7428352;19;20027;-86
2022/09/22 16:38:33;;;;;;;5.40;2.38;;;16.90;99.90;;;;;;7425057;19;20014;-85
2022/09/22 16:41:03;;;;;;;6.18;2.25;;;16.70;99.90;;;;;;7427255;19;20034;-85
2022/09/22 16:43:30;;;;;;;4.40;1.85;;;16.50;99.90;;;;;;7425479;19;20477;-85
2022/09/22 16:48:41;;;;;;;5.78;2.10;;;16.30;99.90;;;;;;7409012;19;20470;-86
2022/09/22 16:51:08;;;;;;;4.63;2.08;;;16.10;99.90;;;;;;7396071;19;20035;-87
2022/09/22 16:53:35;;;;;;;6.97;2.83;;;16.00;99.90;;;;;;7397570;19;20038;-85
2022/09/22 16:56:02;;;;;;;4.40;1.98;;;15.90;99.90;;;;;;7397350;19;20018;-85
2022/09/22 16:58:28;;;;;;;5.18;2.85;;;15.80;99.90;;;;;;7391930;19;20022;-85
2022/09/22 17:00:53;;;;;;;6.47;2.25;;;15.70;99.90;;;;;;7391364;19;20021;-86
2022/09/22 17:03:19;;;;;;;6.43;2.30;;;15.60;99.90;;;;;;7385627;19;20019;-87
2022/09/22 17:05:45;;;;;;;5.78;2.28;;;15.40;99.90;;;;;;7384793;19;20026;-86
2022/09/22 17:08:12;;;;;;;4.90;2.15;;;15.20;99.90;;;;;;7394376;19;20031;-87
2022/09/22 17:10:38;;;;;;;3.80;2.08;;;15.10;99.90;;;;;;7398207;19;20449;-86
2022/09/22 17:13:04;;;;;;;4.13;1.90;;;14.90;99.90;;;;;;7396180;19;20094;-88
2022/09/22 17:15:34;;;;;;;4.65;2.08;;;14.80;99.90;;;;;;7395474;19;20022;-85
2022/09/22 17:18:02;;;;;;;8.45;2.38;;;14.60;99.90;;;;;;7394406;19;20022;-85
2022/09/22 17:20:29;;;;;;;3.63;2.13;;;14.50;99.90;;;;;;7397922;19;20015;-85
2022/09/22 17:22:55;;;;;;;5.30;2.20;;;14.40;99.90;;;;;;7394402;19;20025;-85
2022/09/22 17:25:24;;;;;;;8.25;2.35;;;14.30;99.90;;;;;;7395281;19;20033;-85
2022/09/22 17:27:50;;;;;;;4.43;2.28;;;14.20;99.90;;;;;;7394129;19;20165;-85
2022/09/22 17:30:16;;;;;;;5.57;2.50;;;14.10;99.90;;;;;;7395093;19;20502;-85
2022/09/22 17:32:42;;;;;;;6.60;2.60;;;14.00;99.90;;;;;;7391261;19;20010;-85
2022/09/22 17:35:10;;;;;;;6.88;2.83;;;13.90;99.90;;;;;;7396105;19;20010;-86
2022/09/22 17:37:36;;;;;;;6.00;3.10;;;13.80;99.90;;;;;;7396362;19;20017;-85
2022/09/22 17:40:02;;;;;;;6.15;3.30;;;13.70;99.90;;;;;;7397917;19;20035;-85
2022/09/22 17:42:30;;;;;;;6.40;3.47;;;13.70;99.90;;;;;;7393223;19;20025;-85
2022/09/22 17:44:56;;;;;;;8.32;3.50;;;13.60;99.90;;;;;;7396891;19;20014;-85
2022/09/22 17:55:46;;;;;;;6.80;3.80;;;13.30;99.90;;;;;;7398476;19;20018;-86
2022/09/22 17:58:12;;;;;;;6.00;3.65;;;13.20;99.90;;;;;;7393880;19;20049;-86
2022/09/22 18:00:38;;;;;;;6.45;3.60;;;13.20;99.90;;;;;;7393581;19;20022;-85
2022/09/22 18:03:04;;;;;;;6.95;4.13;;;13.10;99.90;;;;;;7397466;19;20014;-86
2022/09/22 18:05:31;;;;;;;6.20;4.55;;;13.10;99.90;;;;;;7396044;19;20081;-85
2022/09/22 18:07:58;;;;;;;7.00;4.85;;;13.00;99.90;;;;;;7395277;19;20545;-86
2022/09/22 18:10:30;;;;;;;6.38;5.20;;;13.00;99.90;;;;;;7395322;19;20015;-86
2022/09/22 18:12:57;;;;;;;8.35;5.38;;;12.90;99.90;;;;;;7394585;19;20031;-87
2022/09/22 18:15:25;;;;;;;7.75;5.63;;;12.90;99.90;;;;;;7396434;19;20021;-86
2022/09/22 18:17:54;;;;;;;8.73;4.88;;;12.80;99.90;;;;;;7394330;19;20054;-85
2022/09/22 18:20:21;;;;;;;9.35;5.70;;;12.80;99.90;;;;;;7392660;19;20019;-82
2022/09/22 18:22:47;;;;;;;7.03;4.47;;;12.80;99.90;;;;;;7390463;19;20015;-83
2022/09/22 18:25:22;;;;;;;9.02;4.88;;;12.70;99.90;;;;;;7396179;19;20043;-83
2022/09/22 18:27:48;;;;;;;8.18;5.53;;;12.80;99.90;;;;;;7393713;19;20030;-85
2022/09/22 18:30:15;;;;;;;6.82;4.95;;;12.70;99.90;;;;;;7389482;19;20077;-83
2022/09/22 18:32:41;;;;;;;5.90;5.13;;;12.80;99.90;;;;;;7395381;19;20364;-83
2022/09/22 18:35:08;;;;;;;8.52;5.30;;;12.80;99.90;;;;;;7393693;19;20015;-84
2022/09/22 18:37:34;;;;;;;8.02;4.60;;;12.70;99.90;;;;;;7392651;19;20007;-84
2022/09/22 18:40:00;;;;;;;7.82;5.50;;;12.60;99.90;;;;;;7396286;19;20090;-83
2022/09/22 18:42:26;;;;;;;7.05;5.07;;;12.60;99.90;;;;;;7393340;19;20070;-84
2022/09/22 18:44:53;;;;;;;10.98;5.45;;;12.60;99.90;;;;;;7394392;19;20018;-85
2022/09/22 18:47:21;;;;;;;9.85;6.00;;;12.50;99.90;;;;;;7394886;19;20018;-84
2022/09/22 18:49:50;;;;;;;9.10;6.13;;;12.50;99.90;;;;;;7393078;19;20019;-83
2022/09/22 18:52:21;;;;;;;8.95;5.45;;;12.50;99.90;;;;;;7395607;19;20018;-83
2022/09/22 18:54:47;;;;;;;9.30;6.30;;;12.50;99.90;;;;;;7394554;19;20026;-84
2022/09/22 18:57:13;;;;;;;10.30;6.00;;;12.40;99.90;;;;;;7390503;19;20021;-84
2022/09/22 18:59:40;;;;;;;9.25;6.40;;;12.30;99.90;;;;;;7391797;19;20381;-83
2022/09/22 19:02:06;;;;;;;7.82;6.88;;;12.30;99.90;;;;;;7395912;19;20025;-85
2022/09/22 19:04:31;;;;;;;9.75;6.80;;;12.20;99.90;;;;;;7395664;19;20018;-80
2022/09/22 19:09:43;;;;;;;8.70;6.95;;;12.10;99.90;;;;;;7391565;19;20051;-84
2022/09/22 19:12:09;;;;;;;9.00;6.95;;;12.10;99.90;;;;;;7391956;19;20162;-83
2022/09/22 19:14:39;;;;;;;10.52;6.40;;;12.10;99.90;;;;;;7392136;19;20506;-83
2022/09/22 19:17:10;;;;;;;14.68;7.38;;;12.00;99.90;;;;;;7390577;19;20018;-82
2022/09/22 19:19:37;;;;;;;13.43;6.85;;;12.00;99.90;;;;;;7393177;19;20007;-83
2022/09/22 19:22:08;;;;;;;10.90;6.70;;;12.00;99.90;;;;;;7393805;19;20436;-83
2022/09/22 19:24:35;;;;;;;10.65;7.68;;;11.90;99.90;;;;;;7393244;19;20477;-85
2022/09/22 19:27:03;;;;;;;10.38;7.32;;;11.90;99.90;;;;;;7392630;19;20010;-85
2022/09/22 19:29:30;;;;;;;10.55;7.40;;;11.90;99.90;;;;;;7394967;19;20726;-86
2022/09/22 19:31:56;;;;;;;9.57;7.47;;;11.90;99.90;;;;;;7395981;19;20027;-82
2022/09/22 19:34:22;;;;;;;10.73;7.90;;;11.80;99.90;;;;;;7387081;19;20483;-86
2022/09/22 19:36:48;;;;;;;10.77;7.63;;;11.90;99.90;;;;;;7391192;19;20018;-86
2022/09/22 19:39:14;;;;;;;9.82;6.93;;;11.80;99.90;;;;;;7390169;19;20498;-84
2022/09/22 19:41:41;;;;;;;10.48;7.38;;;11.70;99.90;;;;;;7393718;19;20011;-84
2022/09/22 19:44:08;;;;;;;9.32;7.10;;;11.70;99.90;;;;;;7391906;19;20082;-83
2022/09/22 19:46:35;;;;;;;10.80;7.70;;;11.70;99.90;;;;;;7393522;19;20019;-84
2022/09/22 19:49:01;;;;;;;11.55;7.60;;;11.70;99.90;;;;;;7388812;19;20055;-83
2022/09/22 19:51:27;;;;;;;12.00;6.80;;;11.70;99.90;;;;;;7393663;19;20018;-83
2022/09/22 19:53:52;;;;;;;13.10;7.60;;;11.70;99.90;;;;;;7392858;19;20015;-87
2022/09/22 19:56:19;;;;;;;12.35;8.20;;;11.70;99.90;;;;;;7388934;19;20011;-85
2022/09/22 19:58:46;;;;;;;8.85;7.80;;;11.70;99.90;;;;;;7390917;19;20992;-85
2022/09/22 20:01:33;;;;;;;10.55;8.20;;;11.70;99.90;;;;;;7392134;19;20403;-85
2022/09/22 20:03:59;;;;;;;12.15;7.72;;;11.60;99.90;;;;;;7391157;19;20015;-78
2022/09/22 20:06:26;;;;;;;12.95;8.43;;;11.60;99.90;;;;;;7364742;19;20010;-82
2022/09/22 20:09:01;;;;;;;10.93;7.85;;;11.50;99.90;;;;;;7392320;19;20026;-84
2022/09/22 20:11:39;;;;;;;9.73;7.75;;;11.50;99.90;;;;;;7393048;19;20024;-85
2022/09/22 20:14:19;;;;;;;10.63;8.45;;;11.40;99.90;;;;;;7391989;19;20035;-90
2022/09/22 20:16:52;;;;;;;11.32;8.80;;;11.40;99.90;;;;;;7387716;19;20964;-91
2022/09/22 20:19:20;;;;;;;9.75;8.00;;;11.30;99.90;;;;;;7391461;19;20018;-91
2022/09/22 20:21:46;;;;;;;10.88;8.52;;;11.20;99.90;;;;;;7393154;19;20022;-91
2022/09/22 20:24:15;;;;;;;10.40;8.77;;;11.30;99.90;;;;;;7398360;19;20031;-89
2022/09/22 20:26:43;;;;;;;10.25;8.50;;;11.30;99.90;;;;;;7399459;19;20022;-89
2022/09/22 20:29:10;;;;;;;10.07;7.80;;;11.30;99.90;;;;;;7401184;19;20025;-69
2022/09/22 20:31:36;;;;;;;12.35;8.73;;;11.20;99.90;;;;;;7396912;19;20014;-70
2022/09/22 20:34:04;;;;;;;11.65;7.82;;;11.20;99.90;;;;;;7397579;19;20014;-69
2022/09/22 20:36:34;;;;;;;9.98;8.85;;;11.10;99.90;;;;;;7396753;19;20019;-69
2022/09/22 20:39:00;;;;;;;10.88;9.27;;;11.10;99.90;;;;;;7398303;19;20030;-69
2022/09/22 20:41:28;;;;;;;15.35;9.05;;;11.10;99.90;;;;;;7396963;19;20043;-72
2022/09/22 20:43:54;;;;;;;13.77;8.85;;;11.00;99.90;;;;;;7399682;19;20515;-72
2022/09/22 20:46:20;;;;;;;13.48;10.13;;;11.00;99.90;;;;;;7395652;19;20018;-72
2022/09/22 20:48:47;;;;;;;12.18;10.15;;;11.00;99.90;;;;;;7398344;19;20011;-73
2022/09/22 20:51:13;;;;;;;16.98;10.50;;;11.00;99.90;;;;;;7399495;19;20011;-73
2022/09/22 20:53:39;;;;;;;11.77;9.05;;;11.00;99.90;;;;;;7396935;19;20018;-73
2022/09/22 20:56:08;;;;;;;11.55;10.30;;;10.90;99.90;;;;;;7396067;19;20022;-72
2022/09/22 20:58:39;;;;;;;11.35;10.15;;;11.00;99.90;;;;;;7396184;19;20014;-72
2022/09/22 21:01:05;;;;;;;12.07;10.75;;;10.90;99.90;;;;;;7399054;19;20018;-73
2022/09/22 21:03:32;;;;;;;13.15;10.73;;;10.90;99.90;;;;;;7396675;19;20027;-73
2022/09/22 21:06:03;;;;;;;12.30;9.13;;;10.90;99.90;;;;;;7398016;19;20014;-72
2022/09/22 21:11:14;;;;;;;12.60;9.50;;;10.80;99.90;;;;;;7397545;19;20021;-73
2022/09/22 21:13:41;;;;;;;11.68;10.10;;;10.80;99.90;;;;;;7398572;19;20078;-72
2022/09/22 21:16:07;;;;;;;13.18;10.05;;;10.90;99.90;;;;;;7397149;19;20003;-72
2022/09/22 21:18:37;;;;;;;11.55;10.38;;;10.90;99.90;;;;;;7399646;19;20502;-73
2022/09/22 21:21:04;;;;;;;14.98;9.35;;;11.00;99.90;;;;;;7397610;19;20011;-73
2022/09/22 21:23:31;;;;;;;10.38;9.25;;;11.00;99.90;;;;;;7396161;19;20018;-73
2022/09/22 21:26:02;;;;;;;14.15;8.70;;;11.00;99.90;;;;;;7397718;19;20045;-72
2022/09/22 21:28:29;;;;;;;13.00;9.43;;;11.00;99.90;;;;;;7398348;19;20018;-72
2022/09/22 21:31:13;;;;;;;12.75;10.85;;;11.00;99.90;;;;;;7400379;19;20010;-72
2022/09/22 21:33:39;;;;;;;11.80;10.60;;;10.90;99.90;;;;;;7395475;19;20015;-72
2022/09/22 21:36:12;;;;;;;13.65;10.82;;;10.90;99.90;;;;;;7397631;19;20021;-72
2022/09/22 21:38:39;;;;;;;;;;;10.80;99.90;;;;;;7404215;19;20019;-92
2022/09/22 21:41:07;;;;;;;12.48;10.68;;;10.70;99.90;;;;;;7403309;19;19914;-92
2022/09/22 21:43:37;;;;;;;12.73;9.80;;;10.70;99.90;;;;;;7397808;19;20497;-91
2022/09/22 21:46:06;;;;;;;12.23;11.02;;;10.70;99.90;;;;;;7399877;19;20025;-92
2022/09/22 21:48:35;;;;;;;12.13;11.00;;;10.70;99.90;;;;;;7395780;19;20022;-90
2022/09/22 21:51:07;;;;;;;13.18;10.55;;;10.80;99.90;;;;;;7397136;19;20024;-89
2022/09/22 21:53:35;;;;;;;12.93;10.53;;;10.90;99.90;;;;;;7398257;19;20118;-93
2022/09/22 21:56:04;;;;;;;12.27;10.75;;;11.00;99.90;;;;;;7397765;19;20074;-94
2022/09/22 21:58:32;;;;;;;11.55;9.98;;;11.00;99.90;;;;;;7397680;19;20415;-92
2022/09/22 22:01:03;;;;;;;12.50;10.35;;;11.00;99.90;;;;;;7398141;19;20022;-90
2022/09/22 22:03:30;;;;;;;12.00;10.02;;;11.00;99.90;;;;;;7395232;19;20029;-90
2022/09/22 22:06:05;;;;;;;12.75;10.60;;;11.00;99.90;;;;;;7394770;19;20015;-92
2022/09/22 22:08:32;;;;;;;11.23;10.15;;;11.10;99.90;;;;;;7397195;19;20489;-91
2022/09/22 22:11:15;;;;;;;12.50;10.70;;;11.10;99.90;;;;;;7395712;19;20049;-87
2022/09/22 22:13:43;;;;;;;12.95;10.02;;;11.20;99.90;;;;;;7391236;19;20026;-80
2022/09/22 22:16:12;;;;;;;12.98;10.93;;;11.10;99.90;;;;;;7389320;19;20011;-79
2022/09/22 22:18:39;;;;;;;13.15;10.38;;;11.10;99.90;;;;;;7397343;19;20512;-91
2022/09/22 22:21:16;;;;;;;11.75;10.55;;;11.10;99.90;;;;;;7396911;19;20461;-91
2022/09/22 22:23:48;;;;;;;11.50;10.30;;;11.10;99.90;;;;;;7396226;19;20378;-83
2022/09/22 22:26:19;;;;;;;12.87;11.57;;;11.10;99.90;;;;;;7395148;19;20423;-82
2022/09/22 22:28:46;;;;;;;12.13;10.85;;;11.00;99.90;;;;;;7390868;19;20025;-82
2022/09/22 22:31:15;;;;;;;13.27;11.68;;;11.10;99.90;;;;;;7397210;19;20510;-82
2022/09/22 22:33:42;;;;;;;12.65;11.45;;;11.10;99.90;;;;;;7392043;19;20399;-91
2022/09/22 22:36:11;;;;;;;13.27;11.27;;;11.00;99.90;;;;;;7398402;19;20082;-93
2022/09/22 22:38:38;;;;;;;11.75;10.55;;;11.00;99.90;;;;;;7395796;19;20035;-92
2022/09/22 22:41:10;;;;;;;12.85;10.23;;;11.00;99.90;;;;;;7397236;19;20022;-92
2022/09/22 22:43:37;;;;;;;15.40;11.82;;;10.90;99.90;;;;;;7397637;19;20014;-92
2022/09/22 22:46:04;;;;;;;13.32;11.38;;;10.90;99.90;;;;;;7397239;19;20026;-92
2022/09/22 22:48:30;;;;;;;12.85;11.52;;;10.90;99.90;;;;;;7398196;19;20066;-91
2022/09/22 22:50:56;;;;;;;12.45;10.32;;;10.90;99.90;;;;;;7396559;19;20038;-93
2022/09/22 22:53:24;;;;;;;13.93;11.57;;;10.90;99.90;;;;;;7398333;19;20497;-92
2022/09/22 22:56:15;;;;;;;13.85;11.23;;;10.90;99.90;;;;;;7395735;19;20485;-92
2022/09/22 22:58:42;;;;;;;13.73;11.85;;;10.80;99.90;;;;;;7396809;19;20017;-93
2022/09/22 23:01:13;;;;;;;13.40;11.25;;;10.80;99.90;;;;;;7396948;19;20592;-92
2022/09/22 23:03:42;;;;;;;14.52;11.90;;;10.90;99.90;;;;;;7395645;19;20018;-92
2022/09/22 23:06:10;;;;;;;11.57;10.13;;;10.90;99.90;;;;;;7397242;19;20041;-91
2022/09/22 23:08:37;;;;;;;13.55;11.32;;;10.80;99.90;;;;;;7396054;19;20017;-92
2022/09/22 23:11:05;;;;;;;15.23;12.05;;;10.80;99.90;;;;;;7395975;19;20029;-92
2022/09/22 23:13:32;;;;;;;14.43;11.57;;;10.80;99.90;;;;;;7396825;19;20069;-93
2022/09/22 23:16:07;;;;;;;11.05;9.95;;;10.80;99.90;;;;;;7395974;19;20014;-93
2022/09/22 23:18:36;;;;;;;12.50;11.40;;;10.80;99.90;;;;;;7398313;19;20022;-92
2022/09/22 23:21:12;;;;;;;12.07;10.80;;;10.70;99.90;;;;;;7395887;19;20011;-92
2022/09/22 23:23:39;;;;;;;15.50;11.43;;;10.70;99.90;;;;;;7396015;19;20014;-91
2022/09/22 23:26:06;;;;;;;13.90;12.25;;;10.70;99.90;;;;;;7394626;19;20025;-91
2022/09/22 23:28:34;;;;;;;13.40;11.98;;;10.70;99.90;;;;;;7395468;19;20022;-91
2022/09/22 23:31:12;;;;;;;13.38;10.55;;;10.70;99.90;;;;;;7394982;19;20096;-92
2022/09/22 23:33:41;;;;;;;13.88;12.45;;;10.70;99.90;;;;;;7395279;19;20010;-92
2022/09/22 23:36:10;;;;;;;12.88;11.57;;;10.70;99.90;;;;;;7394966;19;20022;-91
2022/09/22 23:38:36;;;;;;;12.48;11.18;;;10.60;99.90;;;;;;7394984;19;20019;-92
2022/09/22 23:41:03;;;;;;;13.73;12.18;;;10.60;99.90;;;;;;7395590;19;20015;-91
2022/09/22 23:43:31;;;;;;;13.20;11.85;;;10.60;99.90;;;;;;7395135;19;20026;-92
2022/09/22 23:45:57;;;;;;;13.15;11.85;;;10.60;99.90;;;;;;7396487;19;20014;-91
2022/09/22 23:48:24;;;;;;;13.38;11.05;;;10.50;99.90;;;;;;7393519;19;20025;-92
2022/09/22 23:50:53;;;;;;;11.50;9.73;;;10.50;99.90;;;;;;7394590;19;20018;-90
2022/09/22 23:53:21;;;;;;;13.20;10.77;;;10.50;99.90;;;;;;7395804;19;20014;-92
2022/09/22 23:55:49;;;;;;;14.10;11.70;;;10.60;99.90;;;;;;7393518;19;20018;-91
2022/09/22 23:58:15;;;;;;;13.15;11.85;;;10.50;99.90;;;;;;7392814;19;20022;-92
